Time;durP1;ratioP1;P1;durP2;ratioP2;P2;SDS_P1;SDS_P2;PMS_P1;PMS_P2;Temp;Humidity;BMP_temperature;BMP_pressure;BME280_temperature;BME280_humidity;BME280_pressure;Samples;Min_cycle;Max_cycle;Signal;HPM_P1;HPM_P2
2022/09/25 00:01:37;;;;;;;9.65;2.92;;;8.10;99.90;;;;;;5086673;28;20452;-65
2022/09/25 00:04:04;;;;;;;6.80;2.72;;;8.10;99.90;;;;;;5092924;28;20039;-66
2022/09/25 00:06:31;;;;;;;11.43;2.50;;;8.10;99.90;;;;;;5085457;28;20628;-66
2022/09/25 00:09:00;;;;;;;6.10;2.70;;;8.00;99.90;;;;;;5092867;28;20110;-66
2022/09/25 00:11:29;;;;;;;4.78;2.25;;;8.00;99.90;;;;;;5089087;28;20415;-65
2022/09/25 00:13:57;;;;;;;5.40;2.50;;;8.10;99.90;;;;;;5087943;28;20495;-66
2022/09/25 00:16:25;;;;;;;8.05;2.90;;;8.00;99.90;;;;;;5098909;28;20321;-66
2022/09/25 00:21:36;;;;;;;6.43;2.58;;;8.00;99.90;;;;;;5093499;28;20411;-66
2022/09/25 00:24:05;;;;;;;8.93;2.72;;;8.00;99.90;;;;;;5084237;28;20046;-66
2022/09/25 00:26:33;;;;;;;4.22;2.35;;;8.00;99.90;;;;;;5091796;28;20032;-66
2022/09/25 00:29:00;;;;;;;5.57;2.53;;;7.90;99.90;;;;;;5102214;28;20527;-66
2022/09/25 00:31:26;;;;;;;7.70;2.85;;;7.90;99.90;;;;;;5092594;28;20039;-66
2022/09/25 00:33:55;;;;;;;8.77;2.72;;;7.90;99.90;;;;;;5097454;28;20038;-66
2022/09/25 00:36:21;;;;;;;10.50;3.30;;;7.80;99.90;;;;;;5089300;28;20063;-66
2022/09/25 00:38:47;;;;;;;7.28;3.35;;;7.90;99.90;;;;;;5088416;28;20504;-65
2022/09/25 00:41:18;;;;;;;5.68;2.70;;;7.80;99.90;;;;;;5098225;28;20118;-66
2022/09/25 00:43:50;;;;;;;7.90;2.60;;;7.80;99.90;;;;;;5092976;28;20549;-66
2022/09/25 00:46:25;;;;;;;7.18;3.00;;;7.80;99.90;;;;;;5085934;28;20123;-66
2022/09/25 00:48:53;;;;;;;;;;;7.80;99.90;;;;;;5092604;28;20039;-66
2022/09/25 00:51:27;;;;;;;9.73;3.10;;;7.70;99.90;;;;;;5095522;28;19942;-65
2022/09/25 00:53:52;;;;;;;8.05;2.78;;;7.80;99.90;;;;;;5100616;28;20039;-66
2022/09/25 00:56:18;;;;;;;6.63;2.90;;;7.70;99.90;;;;;;5089564;28;20047;-66
2022/09/25 00:58:44;;;;;;;8.85;2.65;;;7.70;99.90;;;;;;5092022;28;20107;-66
2022/09/25 01:01:10;;;;;;;8.57;2.90;;;7.80;99.90;;;;;;5096121;28;20032;-66
2022/09/25 01:03:38;;;;;;;4.82;3.15;;;7.70;99.90;;;;;;5093677;28;20039;-66
2022/09/25 01:06:05;;;;;;;11.02;3.30;;;7.70;99.90;;;;;;5088627;28;20043;-66
2022/09/25 01:08:32;;;;;;;6.85;2.65;;;7.70;99.90;;;;;;5091212;28;20048;-66
2022/09/25 01:10:58;;;;;;;7.00;2.88;;;7.60;99.90;;;;;;5093690;28;20089;-66
2022/09/25 01:13:24;;;;;;;6.22;2.55;;;7.60;99.90;;;;;;5092171;28;20040;-66
2022/09/25 01:16:13;;;;;;;9.75;2.72;;;7.60;99.90;;;;;;5092127;28;20135;-66
2022/09/25 01:19:06;;;;;;;5.90;2.50;;;7.50;99.90;;;;;;5097148;28;20549;-66
2022/09/25 01:21:53;;;;;;;5.68;2.58;;;7.60;99.90;;;;;;5097476;28;20048;-66
2022/09/25 01:24:29;;;;;;;8.93;2.38;;;7.50;99.90;;;;;;5096567;28;20052;-66
2022/09/25 01:27:09;;;;;;;8.90;2.92;;;7.50;99.90;;;;;;5096358;28;20052;-66
2022/09/25 01:29:41;;;;;;;5.88;2.55;;;7.50;99.90;;;;;;5088914;28;20054;-66
2022/09/25 01:32:15;;;;;;;3.90;1.90;;;7.40;99.90;;;;;;5092881;28;20047;-66
2022/09/25 01:35:06;;;;;;;3.78;1.60;;;7.40;99.90;;;;;;5096830;28;20036;-66
2022/09/25 01:37:58;;;;;;;5.10;2.15;;;7.30;99.90;;;;;;5093814;28;20065;-66
2022/09/25 01:40:34;;;;;;;4.03;1.88;;;7.30;99.90;;;;;;5095535;28;20047;-66
2022/09/25 01:43:18;;;;;;;6.60;2.28;;;7.20;99.90;;;;;;5093984;28;20105;-66
2022/09/25 01:45:54;;;;;;;4.90;2.20;;;7.30;99.90;;;;;;5096261;28;20040;-66
2022/09/25 01:48:25;;;;;;;7.90;2.22;;;7.20;99.90;;;;;;5094155;28;20506;-66
2022/09/25 01:51:20;;;;;;;6.55;2.22;;;7.20;99.90;;;;;;5086059;28;20067;-66
2022/09/25 01:53:51;;;;;;;6.78;2.55;;;7.20;99.90;;;;;;5057048;28;20500;-66
2022/09/25 01:56:28;;;;;;;6.90;2.72;;;7.20;99.90;;;;;;5094622;28;20086;-66
2022/09/25 01:58:58;;;;;;;6.55;2.47;;;7.20;99.90;;;;;;5096002;28;20536;-66
2022/09/25 02:01:31;;;;;;;5.97;2.53;;;7.20;99.90;;;;;;5095788;28;20043;-66
2022/09/25 02:04:20;;;;;;;5.97;2.70;;;7.20;99.90;;;;;;5093124;28;20490;-66
2022/09/25 02:06:48;;;;;;;8.60;2.85;;;7.20;99.90;;;;;;5099114;28;20624;-66
2022/09/25 02:09:35;;;;;;;8.52;2.45;;;7.20;99.90;;;;;;5096453;28;20040;-66
2022/09/25 02:12:07;;;;;;;7.75;2.30;;;7.20;99.90;;;;;;5093405;28;20149;-66
2022/09/25 02:14:39;;;;;;;6.20;2.42;;;7.20;99.90;;;;;;5099942;28;20068;-66
2022/09/25 02:17:09;;;;;;;6.35;2.20;;;7.20;99.90;;;;;;5094155;28;20043;-66
2022/09/25 02:22:22;;;;;;;3.97;2.22;;;7.10;99.90;;;;;;5095610;28;20040;-66
2022/09/25 02:25:04;;;;;;;7.38;1.95;;;7.10;99.90;;;;;;5101320;28;20048;-66
2022/09/25 02:27:29;;;;;;;4.18;2.47;;;7.10;99.90;;;;;;5103026;28;20522;-66
2022/09/25 02:29:57;;;;;;;10.18;2.75;;;7.00;99.90;;;;;;5100818;28;20036;-66
2022/09/25 02:32:28;;;;;;;9.30;2.50;;;7.10;99.90;;;;;;5094343;28;20032;-66
2022/09/25 02:34:55;;;;;;;5.47;2.20;;;7.20;99.90;;;;;;5100762;28;20036;-66
2022/09/25 02:37:21;;;;;;;8.10;2.50;;;7.10;99.90;;;;;;5100628;28;20040;-66
2022/09/25 02:39:51;;;;;;;5.22;2.47;;;7.10;99.90;;;;;;5095065;28;20394;-66
2022/09/25 02:42:17;;;;;;;5.40;2.03;;;7.10;99.90;;;;;;5103682;28;20097;-65
2022/09/25 02:45:05;;;;;;;6.05;2.25;;;7.00;99.90;;;;;;5095539;28;20143;-67
2022/09/25 02:48:03;;;;;;;6.28;2.60;;;7.00;99.90;;;;;;5094237;28;20071;-66
2022/09/25 02:50:41;;;;;;;6.93;2.78;;;7.10;99.90;;;;;;5093370;28;20043;-65
2022/09/25 02:53:31;;;;;;;7.97;2.83;;;7.10;99.90;;;;;;5096376;28;20047;-66
2022/09/25 02:56:11;;;;;;;8.38;3.03;;;7.00;99.90;;;;;;5097066;28;20494;-66
2022/09/25 02:58:53;;;;;;;4.75;2.67;;;7.10;99.90;;;;;;5093958;28;20031;-67
2022/09/25 03:01:23;;;;;;;7.53;2.63;;;7.10;99.90;;;;;;5097528;28;20032;-67
2022/09/25 03:03:52;;;;;;;10.10;2.70;;;7.00;99.90;;;;;;5093911;28;20042;-67
2022/09/25 03:06:20;;;;;;;4.63;2.70;;;7.00;99.90;;;;;;5097063;28;20050;-67
2022/09/25 03:08:51;;;;;;;6.20;3.13;;;7.10;99.90;;;;;;5100910;28;20051;-67
2022/09/25 03:11:20;;;;;;;6.15;2.95;;;7.00;99.90;;;;;;5101548;28;20048;-67
2022/09/25 03:13:55;;;;;;;8.30;2.53;;;7.10;99.90;;;;;;5102655;28;20160;-67
2022/09/25 03:16:39;;;;;;;5.22;2.53;;;7.00;99.90;;;;;;5088547;28;20040;-67
2022/09/25 03:19:05;;;;;;;4.68;2.50;;;7.00;99.90;;;;;;5096499;28;20123;-67
2022/09/25 03:21:31;;;;;;;5.70;2.15;;;7.00;99.90;;;;;;5095549;28;20038;-66
2022/09/25 03:23:58;;;;;;;5.75;2.22;;;6.90;99.90;;;;;;5099787;28;20126;-67
2022/09/25 03:26:26;;;;;;;6.40;2.17;;;7.00;99.90;;;;;;5096356;28;20131;-67
2022/09/25 03:28:53;;;;;;;7.15;2.80;;;6.90;99.90;;;;;;5097579;28;20058;-67
2022/09/25 03:31:19;;;;;;;8.40;3.10;;;6.90;99.90;;;;;;5090735;28;20048;-66
2022/09/25 03:33:45;;;;;;;11.52;2.88;;;6.90;99.90;;;;;;5101500;28;20040;-67
2022/09/25 03:36:20;;;;;;;8.82;2.50;;;6.90;99.90;;;;;;5091881;28;20044;-67
2022/09/25 03:38:48;;;;;;;6.68;2.72;;;6.90;99.90;;;;;;5091102;28;20040;-66
2022/09/25 03:41:18;;;;;;;6.38;2.58;;;6.90;99.90;;;;;;5089859;28;20514;-66
2022/09/25 03:43:44;;;;;;;6.38;2.97;;;6.90;99.90;;;;;;5092749;28;20035;-67
2022/09/25 03:46:12;;;;;;;7.35;2.70;;;6.90;99.90;;;;;;5093101;28;20055;-67
2022/09/25 03:48:38;;;;;;;6.00;2.65;;;6.90;99.90;;;;;;5091067;28;20063;-67
2022/09/25 03:51:05;;;;;;;7.43;2.63;;;6.90;99.90;;;;;;5114130;27;20160;-66
2022/09/25 03:53:32;;;;;;;4.65;2.45;;;6.90;99.90;;;;;;5096497;28;20055;-67
2022/09/25 03:55:59;;;;;;;6.70;3.15;;;6.90;99.90;;;;;;5096116;28;20036;-66
2022/09/25 03:58:25;;;;;;;5.38;2.53;;;6.90;99.90;;;;;;5089544;28;20399;-67
2022/09/25 04:00:51;;;;;;;5.43;2.60;;;6.90;99.90;;;;;;5091180;28;20048;-66
2022/09/25 04:03:17;;;;;;;6.97;3.08;;;6.90;99.90;;;;;;5092105;28;20040;-66
2022/09/25 04:05:42;;;;;;;9.73;2.83;;;6.90;99.90;;;;;;5079914;28;20106;-66
2022/09/25 04:08:09;;;;;;;7.10;2.75;;;6.80;99.90;;;;;;5088994;28;20109;-66
2022/09/25 04:10:37;;;;;;;7.63;2.33;;;6.80;99.90;;;;;;5092652;28;20040;-66
2022/09/25 04:13:04;;;;;;;6.30;2.20;;;6.80;99.90;;;;;;5098352;28;20117;-66
2022/09/25 04:15:30;;;;;;;7.68;2.10;;;6.80;99.90;;;;;;5097745;28;20040;-66
2022/09/25 04:17:57;;;;;;;8.02;2.80;;;6.80;99.90;;;;;;5095231;28;20039;-67
2022/09/25 04:20:22;;;;;;;6.60;2.88;;;6.80;99.90;;;;;;5094289;28;20047;-66
2022/09/25 04:22:48;;;;;;;4.90;2.65;;;6.80;99.90;;;;;;5093050;28;20484;-66
2022/09/25 04:25:14;;;;;;;5.25;2.17;;;6.80;99.90;;;;;;5096808;28;20051;-67
2022/09/25 04:27:40;;;;;;;8.32;2.63;;;6.70;99.90;;;;;;5096017;28;20035;-66
2022/09/25 04:30:06;;;;;;;8.05;2.42;;;6.70;99.90;;;;;;5089850;28;20043;-66
2022/09/25 04:35:17;;;;;;;3.67;2.30;;;6.70;99.90;;;;;;5096042;28;20166;-66
2022/09/25 04:37:42;;;;;;;5.03;2.53;;;6.70;99.90;;;;;;5077974;28;20075;-66
2022/09/25 04:40:08;;;;;;;7.47;2.55;;;6.70;99.90;;;;;;5090129;28;20499;-66
2022/09/25 04:42:34;;;;;;;7.03;2.60;;;6.70;99.90;;;;;;5098569;28;20074;-66
2022/09/25 04:45:00;;;;;;;5.18;2.67;;;6.70;99.90;;;;;;5094861;28;20067;-66
2022/09/25 04:47:28;;;;;;;6.75;3.10;;;6.80;99.90;;;;;;5097085;28;20067;-66
2022/09/25 04:49:55;;;;;;;7.47;3.00;;;6.80;99.90;;;;;;5090531;28;20048;-67
2022/09/25 04:52:21;;;;;;;5.60;2.55;;;6.90;99.90;;;;;;5088288;28;20124;-66
2022/09/25 04:54:47;;;;;;;7.60;2.55;;;6.90;99.90;;;;;;5088304;28;20422;-66
2022/09/25 04:57:17;;;;;;;8.80;2.78;;;7.00;99.90;;;;;;5097963;28;20403;-66
2022/09/25 04:59:43;;;;;;;7.50;2.58;;;7.00;99.90;;;;;;5096714;28;20067;-66
2022/09/25 05:02:12;;;;;;;6.00;2.47;;;7.00;99.90;;;;;;5091261;28;20506;-66
2022/09/25 05:04:38;;;;;;;10.13;3.00;;;7.10;99.90;;;;;;5097626;28;20123;-66
2022/09/25 05:07:04;;;;;;;6.95;2.40;;;7.00;99.90;;;;;;5091889;28;20128;-66
2022/09/25 05:09:31;;;;;;;6.90;2.35;;;7.10;99.90;;;;;;5091971;28;20395;-66
2022/09/25 05:11:57;;;;;;;10.88;2.13;;;7.10;99.90;;;;;;5099457;28;20063;-67
2022/09/25 05:14:22;;;;;;;7.90;2.60;;;7.10;99.90;;;;;;5090526;28;20459;-66
2022/09/25 05:16:48;;;;;;;6.47;2.10;;;7.00;99.90;;;;;;5095316;28;20029;-66
2022/09/25 05:19:15;;;;;;;3.55;2.47;;;7.00;99.90;;;;;;5095721;28;20116;-67
2022/09/25 05:21:42;;;;;;;7.60;2.20;;;7.00;99.90;;;;;;5098279;28;20035;-66
2022/09/25 05:24:08;;;;;;;5.20;2.10;;;6.90;99.90;;;;;;5093819;28;20506;-67
2022/09/25 05:26:38;;;;;;;6.07;2.08;;;6.90;99.90;;;;;;5098428;28;20483;-67
2022/09/25 05:29:04;;;;;;;5.28;2.25;;;6.90;99.90;;;;;;5097493;28;20044;-66
2022/09/25 05:31:31;;;;;;;6.40;2.30;;;6.90;99.90;;;;;;5097192;28;20080;-66
2022/09/25 05:33:57;;;;;;;6.72;2.03;;;6.90;99.90;;;;;;5095145;28;20398;-66
2022/09/25 05:36:22;;;;;;;7.35;2.42;;;6.80;99.90;;;;;;5095999;28;20119;-66
2022/09/25 05:38:48;;;;;;;5.63;2.58;;;6.90;99.90;;;;;;5097212;28;20047;-67
2022/09/25 05:41:14;;;;;;;7.20;2.05;;;6.90;99.90;;;;;;5094531;28;20123;-66
2022/09/25 05:43:42;;;;;;;3.90;1.95;;;6.80;99.90;;;;;;5099235;28;20028;-67
2022/09/25 05:46:09;;;;;;;7.25;2.60;;;6.90;99.90;;;;;;5095264;28;20052;-66
2022/09/25 05:48:35;;;;;;;5.05;2.40;;;6.80;99.90;;;;;;5096885;28;20047;-67
2022/09/25 05:51:01;;;;;;;9.23;2.55;;;6.90;99.90;;;;;;5095466;28;20157;-67
2022/09/25 05:53:27;;;;;;;6.35;2.05;;;6.90;99.90;;;;;;5100504;28;20036;-67
2022/09/25 05:55:56;;;;;;;11.68;2.00;;;6.90;99.90;;;;;;5094425;28;20122;-67
2022/09/25 05:58:24;;;;;;;6.47;1.92;;;6.90;99.90;;;;;;5101223;28;20040;-67
2022/09/25 06:00:50;;;;;;;3.60;1.70;;;6.90;99.90;;;;;;5088141;28;20050;-67
2022/09/25 06:03:17;;;;;;;3.60;1.60;;;6.90;99.90;;;;;;5085857;28;20041;-67
2022/09/25 06:05:45;;;;;;;3.70;1.88;;;6.90;99.90;;;;;;5071328;28;20044;-67
2022/09/25 06:08:12;;;;;;;4.88;2.08;;;6.90;99.90;;;;;;5099743;28;20392;-67
2022/09/25 06:10:38;;;;;;;5.97;1.98;;;7.00;99.90;;;;;;5090405;28;20051;-67
2022/09/25 06:13:05;;;;;;;6.60;2.17;;;7.00;99.90;;;;;;5096962;28;20052;-67
2022/09/25 06:15:36;;;;;;;8.70;2.67;;;7.10;99.90;;;;;;5081434;28;20110;-67
2022/09/25 06:18:06;;;;;;;10.98;2.75;;;7.20;99.90;;;;;;5094051;28;20047;-67
2022/09/25 06:20:32;;;;;;;6.30;2.05;;;7.20;99.90;;;;;;5094798;28;20051;-67
2022/09/25 06:23:01;;;;;;;5.13;2.40;;;7.30;99.90;;;;;;5089982;28;20040;-67
2022/09/25 06:25:29;;;;;;;7.47;2.30;;;7.40;99.90;;;;;;5094182;28;20047;-67
2022/09/25 06:27:56;;;;;;;6.25;2.92;;;7.50;99.90;;;;;;5091605;28;20036;-68
2022/09/25 06:30:26;;;;;;;5.50;2.58;;;7.60;99.90;;;;;;5094377;28;20079;-67
2022/09/25 06:32:58;;;;;;;5.82;2.50;;;7.70;99.90;;;;;;5094834;28;20047;-67
2022/09/25 06:35:25;;;;;;;8.18;3.13;;;7.90;99.90;;;;;;5096690;28;20821;-67
2022/09/25 06:37:51;;;;;;;6.45;3.05;;;8.10;99.90;;;;;;5096578;28;20384;-68
2022/09/25 06:40:17;;;;;;;8.35;2.75;;;8.30;99.90;;;;;;5094097;28;20054;-67
2022/09/25 06:42:44;;;;;;;6.57;2.65;;;8.50;99.90;;;;;;5101428;28;20048;-67
2022/09/25 06:45:10;;;;;;;7.93;2.78;;;8.50;99.90;;;;;;5098422;28;20495;-67
2022/09/25 06:47:36;;;;;;;6.53;2.40;;;8.60;99.90;;;;;;5086665;28;20040;-67
2022/09/25 06:50:02;;;;;;;8.40;3.00;;;8.70;99.90;;;;;;5077510;28;20059;-67
2022/09/25 06:52:28;;;;;;;6.43;2.55;;;8.80;99.90;;;;;;5092366;28;20044;-67
2022/09/25 06:54:54;;;;;;;6.40;2.30;;;9.00;99.90;;;;;;5094668;28;20090;-67
2022/09/25 06:57:19;;;;;;;9.60;2.83;;;9.10;99.90;;;;;;5086116;28;20106;-66
2022/09/25 06:59:45;;;;;;;11.40;2.33;;;9.30;99.90;;;;;;5098736;28;20094;-67
2022/09/25 07:04:55;;;;;;;10.55;2.47;;;9.50;99.90;;;;;;5098440;28;20044;-67
2022/09/25 07:07:20;;;;;;;9.82;2.40;;;9.80;99.90;;;;;;5095178;28;20051;-66
2022/09/25 07:09:47;;;;;;;7.45;2.20;;;10.00;99.90;;;;;;5097821;28;20032;-67
2022/09/25 07:12:14;;;;;;;7.85;2.22;;;10.30;99.90;;;;;;5098110;28;20060;-67
2022/09/25 07:14:41;;;;;;;6.35;1.63;;;10.60;99.90;;;;;;5087987;28;20136;-67
2022/09/25 07:17:07;;;;;;;7.93;1.88;;;11.30;99.90;;;;;;5089334;28;20043;-67
2022/09/25 07:19:33;;;;;;;3.08;1.80;;;12.00;99.90;;;;;;5089341;28;20403;-67
2022/09/25 07:21:59;;;;;;;7.85;1.70;;;12.70;99.90;;;;;;5098938;28;20457;-67
2022/09/25 07:24:25;;;;;;;7.35;1.80;;;13.60;99.90;;;;;;5091417;28;20044;-67
2022/09/25 07:26:51;;;;;;;4.88;1.33;;;14.40;99.90;;;;;;5076585;28;20085;-67
2022/09/25 07:29:18;;;;;;;6.28;1.42;;;15.10;99.90;;;;;;5098709;28;20035;-67
2022/09/25 07:31:43;;;;;;;4.60;1.42;;;15.90;99.90;;;;;;5071627;28;20056;-67
2022/09/25 07:34:11;;;;;;;5.68;1.15;;;16.60;99.90;;;;;;5097328;28;20040;-67
2022/09/25 07:36:38;;;;;;;4.57;1.05;;;17.20;99.90;;;;;;5087533;28;20076;-67
2022/09/25 07:39:05;;;;;;;3.47;0.63;;;17.80;99.90;;;;;;5091669;28;20059;-67
2022/09/25 07:41:31;;;;;;;7.05;1.10;;;18.30;99.90;;;;;;5093727;28;20058;-68
2022/09/25 07:43:57;;;;;;;4.05;0.70;;;18.90;99.90;;;;;;5091332;28;20134;-67
2022/09/25 07:46:27;;;;;;;6.15;0.77;;;19.30;99.90;;;;;;5096870;28;20085;-67
2022/09/25 07:48:53;;;;;;;2.95;0.75;;;19.40;99.90;;;;;;5078663;28;20052;-67
2022/09/25 07:51:22;;;;;;;5.03;0.80;;;19.50;99.90;;;;;;5098925;28;20035;-67
2022/09/25 07:53:48;;;;;;;7.07;0.85;;;19.50;99.90;;;;;;5088037;28;20083;-67
2022/09/25 07:56:14;;;;;;;3.25;0.50;;;19.50;99.90;;;;;;5095712;28;20039;-67
2022/09/25 07:58:43;;;;;;;3.65;0.50;;;19.10;99.90;;;;;;5089116;28;20558;-67
2022/09/25 08:01:12;;;;;;;5.07;0.70;;;18.60;99.90;;;;;;5074338;28;20511;-67
2022/09/25 08:03:38;;;;;;;4.68;1.00;;;18.40;99.90;;;;;;5088102;28;20044;-67
2022/09/25 08:06:10;;;;;;;6.20;0.90;;;18.80;99.90;;;;;;5093316;28;20028;-67
2022/09/25 08:08:36;;;;;;;4.82;0.68;;;19.50;99.90;;;;;;5074900;28;20074;-68
2022/09/25 08:11:08;;;;;;;6.38;0.68;;;20.20;99.90;;;;;;5099997;28;20486;-67
2022/09/25 08:13:34;;;;;;;2.97;0.60;;;20.80;99.90;;;;;;5095146;28;20115;-68
2022/09/25 08:16:10;;;;;;;5.63;0.75;;;21.20;99.90;;;;;;5091738;28;20134;-65
2022/09/25 08:18:35;;;;;;;2.05;0.40;;;21.60;99.90;;;;;;5096557;28;20475;-68
2022/09/25 08:21:02;;;;;;;4.05;0.60;;;22.00;99.90;;;;;;5095967;28;20038;-66
2022/09/25 08:23:28;;;;;;;6.38;0.70;;;22.30;99.90;;;;;;5092428;28;20097;-67
2022/09/25 08:25:54;;;;;;;4.90;0.60;;;22.60;99.90;;;;;;5093189;28;20040;-66
2022/09/25 08:28:20;;;;;;;2.65;0.43;;;22.80;99.30;;;;;;5090489;28;20497;-67
2022/09/25 08:30:46;;;;;;;3.85;0.68;;;22.90;95.30;;;;;;5092738;28;20031;-66
2022/09/25 08:33:12;;;;;;;3.10;0.47;;;22.60;91.80;;;;;;5089423;28;20487;-66
2022/09/25 08:35:41;;;;;;;2.83;0.52;;;22.50;92.60;;;;;;5091831;28;20051;-67
2022/09/25 08:38:08;;;;;;;2.33;0.40;;;22.90;92.50;;;;;;5090875;28;20092;-66
2022/09/25 08:40:44;;;;;;;5.57;0.77;;;23.20;91.60;;;;;;5092586;28;20043;-66
2022/09/25 08:43:17;;;;;;;3.13;0.50;;;23.60;87.90;;;;;;5094490;28;20050;-66
2022/09/25 08:49:03;;;;;;;4.40;0.63;;;23.90;84.30;;;;;;5090223;28;20070;-66
2022/09/25 08:51:49;;;;;;;4.85;0.73;;;23.90;81.10;;;;;;5078113;28;20299;-66
2022/09/25 08:54:20;;;;;;;5.80;0.50;;;24.20;81.40;;;;;;5090059;28;20051;-66
2022/09/25 08:56:55;;;;;;;3.72;0.52;;;24.40;73.40;;;;;;5097306;28;20044;-66
2022/09/25 08:59:27;;;;;;;3.22;0.30;;;24.40;74.40;;;;;;5099076;28;20212;-66
2022/09/25 09:01:58;;;;;;;3.65;0.30;;;24.60;72.20;;;;;;5094958;28;20047;-66
2022/09/25 09:04:47;;;;;;;3.85;0.55;;;24.70;75.70;;;;;;5095046;28;20115;-66
2022/09/25 09:07:31;;;;;;;6.10;0.98;;;25.00;66.70;;;;;;5096106;28;20040;-66
2022/09/25 09:10:21;;;;;;;3.78;0.40;;;24.70;66.10;;;;;;5093736;28;20440;-66
2022/09/25 09:12:55;;;;;;;5.60;0.68;;;24.30;68.10;;;;;;5094191;28;20052;-66
2022/09/25 09:15:40;;;;;;;3.63;0.50;;;24.20;69.10;;;;;;5081881;28;20131;-66
2022/09/25 09:18:24;;;;;;;3.65;0.77;;;24.30;63.00;;;;;;5088347;28;20549;-66
2022/09/25 09:20:56;;;;;;;4.60;0.75;;;24.00;63.10;;;;;;5090281;28;20046;-65
2022/09/25 09:23:26;;;;;;;3.35;0.38;;;22.70;67.40;;;;;;5089968;28;20057;-66
2022/09/25 09:26:04;;;;;;;5.05;0.60;;;21.70;70.00;;;;;;5096240;28;20040;-66
2022/09/25 09:28:50;;;;;;;3.53;0.40;;;21.30;73.20;;;;;;5099034;28;20085;-66
2022/09/25 09:31:51;;;;;;;4.38;0.40;;;21.70;67.00;;;;;;5089706;28;20085;-66
2022/09/25 09:34:35;;;;;;;2.45;0.40;;;21.60;67.90;;;;;;5091355;28;20056;-66
2022/09/25 09:37:21;;;;;;;1.95;0.30;;;20.80;71.80;;;;;;5090959;28;20471;-66
2022/09/25 09:39:50;;;;;;;2.03;0.20;;;19.60;76.60;;;;;;5088288;28;20047;-65
2022/09/25 09:42:32;;;;;;;3.03;0.30;;;18.40;82.20;;;;;;5096861;28;20047;-65
2022/09/25 09:45:02;;;;;;;1.75;0.20;;;17.40;90.30;;;;;;5066855;28;20350;-66
2022/09/25 09:47:56;;;;;;;2.17;0.30;;;16.70;94.40;;;;;;5092340;28;20055;-66
2022/09/25 09:50:35;;;;;;;2.55;0.38;;;16.20;98.20;;;;;;5090754;28;20428;-66
2022/09/25 09:53:16;;;;;;;3.13;0.30;;;15.80;99.90;;;;;;5094169;28;20043;-66
2022/09/25 09:55:49;;;;;;;3.97;0.68;;;15.50;99.90;;;;;;5082182;28;20048;-66
2022/09/25 09:58:25;;;;;;;4.13;0.45;;;15.30;99.90;;;;;;5092308;28;20043;-66
2022/09/25 10:00:51;;;;;;;3.30;0.20;;;15.00;99.90;;;;;;5094061;28;20376;-66
2022/09/25 10:03:29;;;;;;;2.75;0.20;;;14.90;99.90;;;;;;5085076;28;20048;-66
2022/09/25 10:05:58;;;;;;;2.22;0.40;;;14.90;99.90;;;;;;5089617;28;20459;-66
2022/09/25 10:08:24;;;;;;;2.58;0.20;;;15.00;99.90;;;;;;5091619;28;20032;-67
2022/09/25 10:10:54;;;;;;;1.55;0.30;;;15.20;99.90;;;;;;5071448;28;20055;-67
2022/09/25 10:13:31;;;;;;;3.17;0.40;;;15.60;99.90;;;;;;5091115;28;20028;-67
2022/09/25 10:16:14;;;;;;;3.42;0.40;;;16.50;99.90;;;;;;5105033;27;20066;-67
2022/09/25 10:18:42;;;;;;;4.35;0.40;;;17.50;99.90;;;;;;5093860;28;20383;-67
2022/09/25 10:21:39;;;;;;;2.70;0.57;;;18.30;99.90;;;;;;5089040;28;20036;-67
2022/09/25 10:24:06;;;;;;;2.95;0.47;;;19.60;99.70;;;;;;5070436;28;20048;-67
2022/09/25 10:26:37;;;;;;;3.15;0.30;;;20.60;99.80;;;;;;5094291;28;20060;-67
2022/09/25 10:29:06;;;;;;;5.15;0.50;;;21.40;93.50;;;;;;5100522;28;20425;-67
2022/09/25 10:31:37;;;;;;;4.82;0.50;;;22.00;91.00;;;;;;5089638;28;20051;-67
2022/09/25 10:34:21;;;;;;;3.70;0.40;;;22.60;90.70;;;;;;5077507;28;20086;-67
2022/09/25 10:36:52;;;;;;;2.53;0.40;;;23.20;90.30;;;;;;5093221;28;20388;-67
2022/09/25 10:39:38;;;;;;;2.03;0.40;;;23.60;88.40;;;;;;5099898;28;20045;-67
2022/09/25 10:42:36;;;;;;;2.72;0.47;;;24.00;87.20;;;;;;5088179;28;20449;-68
2022/09/25 10:45:26;;;;;;;2.65;0.50;;;23.70;81.10;;;;;;5096317;28;20044;-67
2022/09/25 10:50:35;;;;;;;4.22;0.40;;;22.10;82.70;;;;;;5084431;28;20040;-67
2022/09/25 10:53:03;;;;;;;3.00;0.40;;;21.20;85.50;;;;;;5091589;28;20036;-67
2022/09/25 10:55:32;;;;;;;3.05;0.40;;;20.50;88.70;;;;;;5104250;27;20357;-67
2022/09/25 10:58:08;;;;;;;4.35;0.45;;;20.00;90.30;;;;;;5094972;28;20052;-67
2022/09/25 11:00:50;;;;;;;5.40;1.02;;;19.60;88.70;;;;;;5087120;28;20059;-67
2022/09/25 11:03:31;;;;;;;3.45;0.30;;;19.10;90.00;;;;;;5099909;28;20039;-66
2022/09/25 11:06:01;;;;;;;2.70;0.40;;;18.60;88.90;;;;;;5100016;28;20115;-67
2022/09/25 11:08:31;;;;;;;1.58;0.50;;;18.00;89.50;;;;;;5089431;28;20047;-67
2022/09/25 11:10:59;;;;;;;4.93;0.80;;;17.60;90.40;;;;;;5089907;28;20037;-67
2022/09/25 11:13:32;;;;;;;3.00;0.50;;;17.20;90.90;;;;;;5095551;28;20044;-66
2022/09/25 11:16:00;;;;;;;4.40;1.00;;;16.90;92.50;;;;;;5092743;28;20526;-66
2022/09/25 11:18:39;;;;;;;2.60;0.40;;;16.60;93.30;;;;;;5097602;28;20042;-66
2022/09/25 11:21:20;;;;;;;2.90;0.30;;;16.40;94.20;;;;;;5100616;28;20064;-66
2022/09/25 11:24:00;;;;;;;2.42;0.40;;;16.20;96.90;;;;;;5098804;28;20054;-67
2022/09/25 11:26:38;;;;;;;5.88;0.50;;;15.90;99.90;;;;;;5096550;28;20051;-67
2022/09/25 11:29:13;;;;;;;5.20;0.45;;;15.70;99.90;;;;;;5093876;28;20036;-67
2022/09/25 11:31:48;;;;;;;4.35;0.40;;;15.60;99.90;;;;;;5095995;28;20043;-67
2022/09/25 11:34:39;;;;;;;3.00;0.40;;;15.40;99.90;;;;;;5092887;28;20086;-67
2022/09/25 11:37:09;;;;;;;8.57;0.95;;;15.30;99.90;;;;;;5085919;28;20055;-68
2022/09/25 11:42:44;;;;;;;3.65;0.65;;;15.10;99.90;;;;;;5085552;28;20039;-67
2022/09/25 11:45:20;;;;;;;4.75;0.60;;;14.80;99.90;;;;;;5093324;28;20100;-68
2022/09/25 11:48:02;;;;;;;4.15;0.45;;;14.80;99.90;;;;;;5091093;28;20060;-66
2022/09/25 11:50:53;;;;;;;3.60;0.50;;;14.70;99.90;;;;;;5095941;28;20515;-67
2022/09/25 11:53:32;;;;;;;4.40;0.50;;;14.60;99.90;;;;;;5092822;28;20028;-66
2022/09/25 11:56:18;;;;;;;3.22;0.50;;;14.60;99.90;;;;;;5082937;28;20071;-67
2022/09/25 11:58:47;;;;;;;3.47;0.60;;;14.60;99.90;;;;;;5080203;28;20454;-67
2022/09/25 12:01:16;;;;;;;3.25;0.60;;;14.80;99.90;;;;;;5096357;28;20112;-66
2022/09/25 12:04:19;;;;;;;3.53;0.50;;;14.80;99.90;;;;;;5082736;28;20134;-66
2022/09/25 12:06:55;;;;;;;2.15;0.35;;;14.90;99.90;;;;;;5090783;28;20153;-66
2022/09/25 12:09:29;;;;;;;4.43;0.35;;;15.10;99.90;;;;;;5087791;28;20127;-66
2022/09/25 12:12:30;;;;;;;3.75;0.50;;;15.70;99.90;;;;;;5093191;28;20492;-67
2022/09/25 12:15:19;;;;;;;3.40;0.50;;;16.40;99.90;;;;;;5096306;28;20044;-67
2022/09/25 12:17:56;;;;;;;1.30;0.30;;;16.70;99.90;;;;;;5083890;28;20604;-67
2022/09/25 12:20:22;;;;;;;2.67;0.35;;;16.90;99.90;;;;;;5095176;28;20032;-67
2022/09/25 12:23:24;;;;;;;1.48;0.40;;;17.80;99.90;;;;;;5084915;28;20582;-67
2022/09/25 12:25:58;;;;;;;2.05;0.20;;;19.10;99.90;;;;;;5087033;28;20051;-67
2022/09/25 12:28:55;;;;;;;5.13;0.50;;;20.60;99.90;;;;;;5081143;28;20131;-67
2022/09/25 12:31:29;;;;;;;3.53;0.30;;;21.70;99.90;;;;;;5085776;28;20044;-67
2022/09/25 12:34:02;;;;;;;;;;;22.20;99.90;;;;;;5083037;28;20998;-67
2022/09/25 12:36:35;;;;;;;3.53;0.50;;;22.70;90.70;;;;;;5087893;28;19923;-66
2022/09/25 12:39:36;;;;;;;1.95;0.30;;;23.30;99.40;;;;;;5107982;27;20098;-67
2022/09/25 12:42:49;;;;;;;3.65;0.60;;;24.00;89.10;;;;;;5086446;28;20131;-67
2022/09/25 12:45:19;;;;;;;2.53;0.30;;;24.40;78.50;;;;;;5025570;28;20079;-67
2022/09/25 12:48:12;;;;;;;2.72;0.25;;;24.20;84.70;;;;;;5008853;28;20112;-67
2022/09/25 12:50:50;;;;;;;1.80;0.20;;;22.70;80.80;;;;;;5074335;28;20051;-67
2022/09/25 12:53:40;;;;;;;1.88;0.20;;;21.40;90.50;;;;;;5085772;28;20059;-67
2022/09/25 12:56:14;;;;;;;3.28;0.28;;;20.50;91.90;;;;;;5097093;28;20497;-67
2022/09/25 12:58:56;;;;;;;1.80;0.35;;;19.70;95.70;;;;;;5091607;28;20094;-66
2022/09/25 13:01:30;;;;;;;3.58;0.30;;;19.20;95.50;;;;;;5085853;28;20123;-67
2022/09/25 13:04:09;;;;;;;1.05;0.20;;;18.50;95.70;;;;;;5094314;28;20450;-67
2022/09/25 13:06:47;;;;;;;1.20;0.25;;;18.10;97.20;;;;;;5100952;28;20698;-67
2022/09/25 13:09:31;;;;;;;3.15;0.25;;;17.80;98.60;;;;;;5085154;28;20382;-67
2022/09/25 13:12:23;;;;;;;1.60;0.40;;;17.50;98.90;;;;;;5088522;28;20110;-66
2022/09/25 13:14:54;;;;;;;2.90;0.40;;;17.30;99.10;;;;;;5083572;28;20483;-66
2022/09/25 13:17:21;;;;;;;3.10;0.30;;;17.20;99.90;;;;;;5087770;28;20090;-67
2022/09/25 13:19:47;;;;;;;2.17;0.30;;;17.10;99.90;;;;;;5084115;28;20055;-66
2022/09/25 13:22:24;;;;;;;2.90;0.40;;;17.10;99.90;;;;;;5075142;28;20044;-67
2022/09/25 13:25:01;;;;;;;2.70;0.45;;;17.40;99.90;;;;;;5085954;28;20040;-67
2022/09/25 13:27:36;;;;;;;1.73;0.30;;;17.90;99.90;;;;;;5094142;28;20522;-67
2022/09/25 13:30:02;;;;;;;2.15;0.30;;;18.10;99.90;;;;;;5086518;28;20054;-67
2022/09/25 13:32:33;;;;;;;3.67;0.30;;;18.00;99.90;;;;;;5094934;28;20085;-67
2022/09/25 13:35:05;;;;;;;4.47;0.50;;;17.90;99.90;;;;;;5091883;28;20043;-67
2022/09/25 13:37:35;;;;;;;3.80;0.40;;;17.90;99.90;;;;;;5082968;28;20101;-67
2022/09/25 13:43:26;;;;;;;1.42;0.20;;;18.20;99.90;;;;;;5098552;28;20438;-67